Time;durP1;ratioP1;P1;durP2;ratioP2;P2;SDS_P1;SDS_P2;PMS_P1;PMS_P2;Temp;Humidity;BMP_temperature;BMP_pressure;BME280_temperature;BME280_humidity;BME280_pressure;Samples;Min_cycle;Max_cycle;Signal;HPM_P1;HPM_P2
2023/11/18 00:01:46;;;;;;;0.10;0.10;;;;;;;;;;5095697;28;20044;-88
2023/11/18 00:04:15;;;;;;;0.10;0.10;;;;;;;;;;5095090;28;20040;-88
2023/11/18 00:06:44;;;;;;;0.10;0.10;;;;;;;;;;5079152;28;20049;-88
2023/11/18 00:09:14;;;;;;;0.10;0.10;;;;;;;;;;5078502;28;20039;-87
2023/11/18 00:11:43;;;;;;;0.10;0.10;;;;;;;;;;5078743;28;20039;-88
2023/11/18 00:14:13;;;;;;;0.10;0.10;;;;;;;;;;5078480;28;20039;-88
2023/11/18 00:16:39;;;;;;;0.63;0.40;;;;;;;;;;5095809;28;20046;-87
2023/11/18 00:19:05;;;;;;;0.10;0.10;;;;;;;;;;5095022;28;20473;-87
2023/11/18 00:21:31;;;;;;;0.10;0.10;;;;;;;;;;5112052;28;20456;-87
2023/11/18 00:23:57;;;;;;;0.10;0.10;;;;;;;;;;5112273;28;20039;-88
2023/11/18 00:26:25;;;;;;;0.10;0.10;;;;;;;;;;5095575;28;20081;-88
2023/11/18 00:28:51;;;;;;;0.13;0.13;;;;;;;;;;5078620;28;20051;-88
2023/11/18 00:31:17;;;;;;;0.10;0.10;;;;;;;;;;5094933;28;20036;-88
2023/11/18 00:33:43;;;;;;;0.10;0.10;;;;;;;;;;5095047;28;20100;-87
2023/11/18 00:36:09;;;;;;;0.10;0.10;;;;;;;;;;5095409;28;20078;-88
2023/11/18 00:38:35;;;;;;;0.10;0.10;;;;;;;;;;5095117;28;20036;-88
2023/11/18 00:41:01;;;;;;;0.73;0.35;;;;;;;;;;5077933;28;20050;-88
2023/11/18 00:43:27;;;;;;;0.35;0.30;;;;;;;;;;5094953;28;20035;-88
2023/11/18 00:45:53;;;;;;;0.10;0.10;;;;;;;;;;5094887;28;20066;-88
2023/11/18 00:48:19;;;;;;;0.10;0.10;;;;;;;;;;5111918;28;20043;-88
2023/11/18 00:50:45;;;;;;;0.10;0.10;;;;;;;;;;5078381;28;20544;-88
2023/11/18 00:53:11;;;;;;;0.20;0.20;;;;;;;;;;5094802;28;20398;-87
2023/11/18 00:55:37;;;;;;;0.10;0.10;;;;;;;;;;5094722;28;20036;-88
2023/11/18 00:58:04;;;;;;;0.10;0.10;;;;;;;;;;5094658;28;20040;-88
2023/11/18 01:00:31;;;;;;;0.20;0.20;;;;;;;;;;5077678;28;20038;-88
2023/11/18 01:02:57;;;;;;;0.10;0.10;;;;;;;;;;5094687;28;20042;-88
2023/11/18 01:05:23;;;;;;;0.10;0.10;;;;;;;;;;5094728;28;20082;-88
2023/11/18 01:07:49;;;;;;;0.10;0.10;;;;;;;;;;5094942;28;20067;-88
2023/11/18 01:10:15;;;;;;;0.20;0.20;;;;;;;;;;5094525;28;20039;-88
2023/11/18 01:12:45;;;;;;;0.20;0.20;;;;;;;;;;5077658;28;20447;-87
2023/11/18 01:15:12;;;;;;;0.10;0.10;;;;;;;;;;5077755;28;20040;-87
2023/11/18 01:17:38;;;;;;;0.10;0.10;;;;;;;;;;5077705;28;20042;-87
2023/11/18 01:20:10;;;;;;;0.10;0.10;;;;;;;;;;5077339;28;20058;-87
2023/11/18 01:22:37;;;;;;;0.20;0.20;;;;;;;;;;5078548;28;20079;-87
2023/11/18 01:25:04;;;;;;;0.10;0.10;;;;;;;;;;5094607;28;20039;-87
2023/11/18 01:27:30;;;;;;;0.10;0.10;;;;;;;;;;5077489;28;20067;-87
2023/11/18 01:29:56;;;;;;;0.10;0.10;;;;;;;;;;5094561;28;20078;-86
2023/11/18 01:32:22;;;;;;;0.10;0.10;;;;;;;;;;5094341;28;20086;-87
2023/11/18 01:34:50;;;;;;;0.10;0.10;;;;;;;;;;5111183;28;20395;-88
2023/11/18 01:37:16;;;;;;;0.10;0.10;;;;;;;;;;5077922;28;20051;-88
2023/11/18 01:39:42;;;;;;;0.10;0.10;;;;;;;;;;5094233;28;20071;-89
2023/11/18 01:42:09;;;;;;;0.10;0.10;;;;;;;;;;5077443;28;20127;-87
2023/11/18 01:44:35;;;;;;;0.10;0.10;;;;;;;;;;5077487;28;20035;-87
2023/11/18 01:47:03;;;;;;;0.10;0.10;;;;;;;;;;5094249;28;20046;-87
2023/11/18 01:49:29;;;;;;;0.20;0.20;;;;;;;;;;5094752;28;20054;-87
2023/11/18 01:51:56;;;;;;;0.10;0.10;;;;;;;;;;5094357;28;20075;-87
2023/11/18 01:54:23;;;;;;;0.10;0.10;;;;;;;;;;5077433;28;20046;-87
2023/11/18 01:56:49;;;;;;;0.10;0.10;;;;;;;;;;5077330;28;20432;-87
2023/11/18 02:01:43;;;;;;;0.10;0.10;;;;;;;;;;5199750;22;20132;-88
2023/11/18 02:04:09;;;;;;;0.40;0.40;;;;;;;;;;5017491;28;20175;-87
2023/11/18 02:06:36;;;;;;;0.10;0.10;;;;;;;;;;5017735;28;20520;-88
2023/11/18 02:09:02;;;;;;;0.10;0.10;;;;;;;;;;5017401;28;20039;-90
2023/11/18 02:12:10;;;;;;;0.10;0.10;;;;;;;;;;5017357;28;20049;-88
2023/11/18 02:14:37;;;;;;;0.10;0.10;;;;;;;;;;5017360;28;20500;-88
2023/11/18 02:17:03;;;;;;;0.10;0.10;;;;;;;;;;5017290;28;20110;-87
2023/11/18 02:19:30;;;;;;;0.20;0.20;;;;;;;;;;5017286;28;20052;-88
2023/11/18 02:21:56;;;;;;;0.10;0.10;;;;;;;;;;5001238;28;20092;-87
2023/11/18 02:24:30;;;;;;;0.10;0.10;;;;;;;;;;5017175;28;20480;-88
2023/11/18 02:26:59;;;;;;;0.20;0.20;;;;;;;;;;5002747;28;20045;-88
2023/11/18 02:29:26;;;;;;;0.10;0.10;;;;;;;;;;5004290;28;20044;-87
2023/11/18 02:31:55;;;;;;;0.10;0.10;;;;;;;;;;5004362;28;20144;-87
2023/11/18 02:34:23;;;;;;;0.10;0.10;;;;;;;;;;5020764;28;20131;-88
2023/11/18 02:36:49;;;;;;;0.10;0.10;;;;;;;;;;5004298;28;20045;-86
2023/11/18 02:39:23;;;;;;;0.10;0.10;;;;;;;;;;5020423;28;20049;-87
2023/11/18 02:41:49;;;;;;;0.10;0.10;;;;;;;;;;5020357;28;20040;-88
2023/11/18 02:44:17;;;;;;;0.10;0.10;;;;;;;;;;5020464;28;20097;-87
2023/11/18 02:46:43;;;;;;;0.10;0.10;;;;;;;;;;5004261;28;20037;-88
2023/11/18 02:49:09;;;;;;;0.10;0.10;;;;;;;;;;5004089;28;20037;-87
2023/11/18 02:51:39;;;;;;;0.25;0.25;;;;;;;;;;5020621;28;20099;-88
2023/11/18 02:54:10;;;;;;;0.20;0.20;;;;;;;;;;5004459;28;20535;-87
2023/11/18 02:56:36;;;;;;;0.10;0.10;;;;;;;;;;5020742;28;20399;-87
2023/11/18 02:59:05;;;;;;;0.10;0.10;;;;;;;;;;5003871;28;20480;-87
2023/11/18 03:01:31;;;;;;;0.10;0.10;;;;;;;;;;5020327;28;20286;-86
2023/11/18 03:03:58;;;;;;;0.10;0.10;;;;;;;;;;5020201;28;20455;-88
2023/11/18 03:06:24;;;;;;;0.10;0.10;;;;;;;;;;5004169;28;20438;-87
2023/11/18 03:08:51;;;;;;;0.10;0.10;;;;;;;;;;5020019;28;20048;-88
2023/11/18 03:11:17;;;;;;;0.10;0.10;;;;;;;;;;5019988;28;20056;-87
2023/11/18 03:13:45;;;;;;;0.17;0.17;;;;;;;;;;5020311;28;20041;-88
2023/11/18 03:16:12;;;;;;;0.20;0.20;;;;;;;;;;5020023;28;20098;-87
2023/11/18 03:18:42;;;;;;;0.10;0.10;;;;;;;;;;5019804;28;20119;-87
2023/11/18 03:21:14;;;;;;;0.15;0.15;;;;;;;;;;5003335;28;20037;-87
2023/11/18 03:23:40;;;;;;;0.10;0.10;;;;;;;;;;5003717;28;20037;-88
2023/11/18 03:26:07;;;;;;;0.10;0.10;;;;;;;;;;5003296;28;20037;-87
2023/11/18 03:28:33;;;;;;;0.10;0.10;;;;;;;;;;5019689;28;20107;-88
2023/11/18 03:30:59;;;;;;;0.10;0.10;;;;;;;;;;5019551;28;20048;-88
2023/11/18 03:33:25;;;;;;;0.10;0.10;;;;;;;;;;5019619;28;20156;-86
2023/11/18 03:35:52;;;;;;;0.10;0.10;;;;;;;;;;5019297;28;20068;-87
2023/11/18 03:38:18;;;;;;;0.20;0.20;;;;;;;;;;5019174;28;20488;-87
2023/11/18 03:40:45;;;;;;;0.10;0.10;;;;;;;;;;5019258;28;20040;-87
2023/11/18 03:43:11;;;;;;;0.10;0.10;;;;;;;;;;5019190;28;20116;-87
2023/11/18 03:45:40;;;;;;;0.10;0.10;;;;;;;;;;5019283;28;20479;-87
2023/11/18 03:48:06;;;;;;;0.30;0.30;;;;;;;;;;5002698;28;20037;-87
2023/11/18 03:50:33;;;;;;;0.10;0.10;;;;;;;;;;5035549;28;20041;-87
2023/11/18 03:52:59;;;;;;;0.10;0.10;;;;;;;;;;5019261;28;20055;-88
2023/11/18 03:55:28;;;;;;;0.10;0.10;;;;;;;;;;5019164;28;20044;-88
2023/11/18 03:57:54;;;;;;;0.20;0.20;;;;;;;;;;5019723;28;20434;-88
2023/11/18 04:00:20;;;;;;;0.10;0.10;;;;;;;;;;5002424;28;20060;-86
2023/11/18 04:02:48;;;;;;;0.40;0.40;;;;;;;;;;5019003;28;20048;-87
2023/11/18 04:05:14;;;;;;;0.45;0.45;;;;;;;;;;5018941;28;20076;-87
2023/11/18 04:07:43;;;;;;;0.10;0.10;;;;;;;;;;5002553;28;20040;-86
2023/11/18 04:10:10;;;;;;;0.10;0.10;;;;;;;;;;5034957;28;20128;-87
2023/11/18 04:12:37;;;;;;;0.20;0.20;;;;;;;;;;5019092;28;20539;-87
2023/11/18 04:15:04;;;;;;;0.30;0.30;;;;;;;;;;5035275;28;20045;-86
2023/11/18 04:17:30;;;;;;;0.10;0.10;;;;;;;;;;5019104;28;20377;-87
2023/11/18 04:19:56;;;;;;;0.22;0.22;;;;;;;;;;5018674;28;20407;-88
2023/11/18 04:22:23;;;;;;;0.25;0.25;;;;;;;;;;5018627;28;20033;-87
2023/11/18 04:24:49;;;;;;;0.10;0.10;;;;;;;;;;5002227;28;20041;-87
2023/11/18 04:27:15;;;;;;;0.10;0.10;;;;;;;;;;5018679;28;20076;-88
2023/11/18 04:29:41;;;;;;;0.10;0.10;;;;;;;;;;5018733;28;20063;-87
2023/11/18 04:32:10;;;;;;;0.10;0.10;;;;;;;;;;5018874;28;20048;-87
2023/11/18 04:34:42;;;;;;;0.35;0.35;;;;;;;;;;5002720;28;20400;-88
2023/11/18 04:37:08;;;;;;;0.10;0.10;;;;;;;;;;5018916;28;20117;-88
2023/11/18 04:39:34;;;;;;;0.10;0.10;;;;;;;;;;5002103;28;20440;-87
2023/11/18 04:42:01;;;;;;;0.20;0.20;;;;;;;;;;5018311;28;20054;-87
2023/11/18 04:44:27;;;;;;;0.10;0.10;;;;;;;;;;5018376;28;20064;-86
2023/11/18 04:46:53;;;;;;;0.10;0.10;;;;;;;;;;5018310;28;20087;-87
2023/11/18 04:49:19;;;;;;;0.20;0.20;;;;;;;;;;5017667;28;20106;-88
2023/11/18 04:51:45;;;;;;;0.10;0.10;;;;;;;;;;5018102;28;20049;-87
2023/11/18 04:54:11;;;;;;;0.40;0.40;;;;;;;;;;5001837;28;20048;-87
2023/11/18 04:56:37;;;;;;;0.10;0.10;;;;;;;;;;5001952;28;20045;-87
2023/11/18 04:59:07;;;;;;;0.15;0.15;;;;;;;;;;5018030;28;20530;-87
2023/11/18 05:01:34;;;;;;;0.10;0.10;;;;;;;;;;5001770;28;20053;-89
2023/11/18 05:04:00;;;;;;;0.15;0.15;;;;;;;;;;5001643;28;20033;-87
2023/11/18 05:06:26;;;;;;;0.10;0.10;;;;;;;;;;5017961;28;20098;-86
2023/11/18 05:08:52;;;;;;;0.28;0.28;;;;;;;;;;5017959;28;20045;-87
2023/11/18 05:11:18;;;;;;;0.10;0.10;;;;;;;;;;5017884;28;20080;-86
2023/11/18 05:13:45;;;;;;;0.10;0.10;;;;;;;;;;5017842;28;20072;-85
2023/11/18 05:16:11;;;;;;;0.10;0.10;;;;;;;;;;5018131;28;20041;-87
2023/11/18 05:18:38;;;;;;;0.10;0.10;;;;;;;;;;5001808;28;20488;-86
2023/11/18 05:21:05;;;;;;;0.10;0.10;;;;;;;;;;5001481;28;20041;-88
2023/11/18 05:23:31;;;;;;;0.20;0.20;;;;;;;;;;5017635;28;20033;-87
2023/11/18 05:25:58;;;;;;;0.10;0.10;;;;;;;;;;5017847;28;20630;-87
2023/11/18 05:28:24;;;;;;;0.20;0.20;;;;;;;;;;5017847;28;20045;-87
2023/11/18 05:30:50;;;;;;;0.10;0.10;;;;;;;;;;5017730;28;20037;-87
2023/11/18 05:33:17;;;;;;;0.28;0.28;;;;;;;;;;5033983;28;20037;-87
2023/11/18 05:35:49;;;;;;;0.10;0.10;;;;;;;;;;5001511;28;20138;-88
2023/11/18 05:38:21;;;;;;;0.20;0.20;;;;;;;;;;5033997;28;20186;-88
2023/11/18 05:40:56;;;;;;;0.10;0.10;;;;;;;;;;5018019;28;20471;-87
2023/11/18 05:43:40;;;;;;;0.47;0.47;;;;;;;;;;5034001;28;20396;-86
2023/11/18 05:46:24;;;;;;;1.23;0.43;;;;;;;;;;5018690;28;20082;-86
2023/11/18 05:48:50;;;;;;;0.38;0.38;;;;;;;;;;5003801;28;20087;-86
2023/11/18 05:51:20;;;;;;;0.10;0.10;;;;;;;;;;5017318;28;20500;-87
2023/11/18 05:53:46;;;;;;;0.30;0.30;;;;;;;;;;5033815;28;20056;-86
2023/11/18 05:56:12;;;;;;;0.15;0.15;;;;;;;;;;5001186;28;20127;-86
2023/11/18 05:58:43;;;;;;;0.30;0.30;;;;;;;;;;5033572;28;20041;-86
2023/11/18 06:01:10;;;;;;;0.10;0.10;;;;;;;;;;5018866;28;20071;-88
2023/11/18 06:03:38;;;;;;;0.20;0.20;;;;;;;;;;5004977;28;20373;-86
2023/11/18 06:06:06;;;;;;;0.10;0.10;;;;;;;;;;5004934;28;20044;-87
2023/11/18 06:08:32;;;;;;;0.10;0.10;;;;;;;;;;5021543;28;20421;-87
2023/11/18 06:10:59;;;;;;;0.10;0.10;;;;;;;;;;5020873;28;20120;-87
2023/11/18 06:13:27;;;;;;;0.10;0.10;;;;;;;;;;5021087;28;20045;-87
2023/11/18 06:15:53;;;;;;;0.20;0.20;;;;;;;;;;5004769;28;20076;-86
2023/11/18 06:18:19;;;;;;;0.10;0.10;;;;;;;;;;5020914;28;20080;-86
2023/11/18 06:20:45;;;;;;;0.20;0.20;;;;;;;;;;5020747;28;20045;-87
2023/11/18 06:23:11;;;;;;;0.20;0.20;;;;;;;;;;5004713;28;20040;-86
2023/11/18 06:25:37;;;;;;;0.10;0.10;;;;;;;;;;5020721;28;20114;-86
2023/11/18 06:28:04;;;;;;;0.10;0.10;;;;;;;;;;5020808;28;20064;-87
2023/11/18 06:30:30;;;;;;;0.40;0.40;;;;;;;;;;5021014;28;20037;-86
2023/11/18 06:32:56;;;;;;;2.08;0.40;;;;;;;;;;5020676;28;20041;-86
2023/11/18 06:35:22;;;;;;;0.28;0.28;;;;;;;;;;5020537;28;20458;-87
2023/11/18 06:37:48;;;;;;;0.10;0.10;;;;;;;;;;5037142;28;20041;-86
2023/11/18 06:40:18;;;;;;;1.10;0.45;;;;;;;;;;5036970;28;20094;-87
2023/11/18 06:42:47;;;;;;;0.10;0.10;;;;;;;;;;5037299;28;20048;-86
2023/11/18 06:45:13;;;;;;;0.30;0.30;;;;;;;;;;5020881;28;20037;-87
2023/11/18 06:47:43;;;;;;;0.35;0.35;;;;;;;;;;5004105;28;20060;-87
2023/11/18 06:50:09;;;;;;;0.55;0.55;;;;;;;;;;5004603;28;20040;-87
2023/11/18 06:52:38;;;;;;;0.30;0.30;;;;;;;;;;5003949;28;20049;-88
2023/11/18 06:55:05;;;;;;;0.30;0.30;;;;;;;;;;5020337;28;20072;-87
2023/11/18 06:57:32;;;;;;;0.20;0.20;;;;;;;;;;5036614;28;20127;-86
2023/11/18 06:59:58;;;;;;;0.10;0.10;;;;;;;;;;5019749;28;21361;-87
2023/11/18 07:02:24;;;;;;;0.10;0.10;;;;;;;;;;5020087;28;20067;-85
2023/11/18 07:04:50;;;;;;;0.10;0.10;;;;;;;;;;5020171;28;20045;-86
2023/11/18 07:07:17;;;;;;;0.28;0.25;;;;;;;;;;5020203;28;20041;-87
2023/11/18 07:09:44;;;;;;;0.20;0.20;;;;;;;;;;5020195;28;20047;-87
2023/11/18 07:12:10;;;;;;;0.10;0.10;;;;;;;;;;5036104;28;20045;-87
2023/11/18 07:14:36;;;;;;;0.52;0.45;;;;;;;;;;5019711;28;20041;-87
2023/11/18 07:17:04;;;;;;;0.20;0.20;;;;;;;;;;5019879;28;20041;-87
2023/11/18 07:19:33;;;;;;;1.15;0.28;;;;;;;;;;5019719;28;20044;-86
2023/11/18 07:21:59;;;;;;;0.20;0.20;;;;;;;;;;5003655;28;20077;-86
2023/11/18 07:24:25;;;;;;;0.20;0.20;;;;;;;;;;5019701;28;20091;-85
2023/11/18 07:26:51;;;;;;;0.63;0.63;;;;;;;;;;5019503;28;20101;-87
2023/11/18 07:29:17;;;;;;;0.20;0.20;;;;;;;;;;5004273;28;20079;-87
2023/11/18 07:31:44;;;;;;;0.43;0.40;;;;;;;;;;5003409;28;20048;-90
2023/11/18 07:34:10;;;;;;;0.60;0.38;;;;;;;;;;5003238;28;20128;-86
2023/11/18 07:36:36;;;;;;;0.35;0.35;;;;;;;;;;5035803;28;20124;-85
2023/11/18 07:39:03;;;;;;;0.10;0.10;;;;;;;;;;5019362;28;20037;-85
2023/11/18 07:41:29;;;;;;;0.55;0.40;;;;;;;;;;5035498;28;20045;-87
2023/11/18 07:43:56;;;;;;;0.28;0.28;;;;;;;;;;5003160;28;20044;-86
2023/11/18 07:46:23;;;;;;;0.60;0.60;;;;;;;;;;5019384;28;20037;-85
2023/11/18 07:48:49;;;;;;;0.85;0.28;;;;;;;;;;5019327;28;20123;-86
2023/11/18 07:51:15;;;;;;;0.10;0.10;;;;;;;;;;5003212;28;20361;-86
2023/11/18 07:53:42;;;;;;;0.10;0.10;;;;;;;;;;5035624;28;20040;-85
2023/11/18 07:56:12;;;;;;;0.20;0.20;;;;;;;;;;5019236;28;20037;-83
2023/11/18 07:58:38;;;;;;;0.30;0.30;;;;;;;;;;5019657;28;20044;-85
2023/11/18 08:01:07;;;;;;;0.10;0.10;;;;;;;;;;5031965;28;20116;-87
2023/11/18 08:03:34;;;;;;;0.10;0.10;;;;;;;;;;5016272;28;20045;-86
2023/11/18 08:06:01;;;;;;;0.30;0.20;;;;;;;;;;5015636;28;20079;-87
2023/11/18 08:08:28;;;;;;;0.22;0.13;;;;;;;;;;4999620;28;20562;-93
2023/11/18 08:10:55;;;;;;;0.25;0.25;;;;;;;;;;5015475;28;20573;-86
2023/11/18 08:13:21;;;;;;;0.90;0.35;;;;;;;;;;5015797;28;20103;-86
2023/11/18 08:15:47;;;;;;;0.20;0.20;;;;;;;;;;5015564;28;20042;-86
2023/11/18 08:18:13;;;;;;;0.10;0.10;;;;;;;;;;5031751;28;20098;-86
2023/11/18 08:20:39;;;;;;;0.47;0.20;;;;;;;;;;4999038;28;20046;-88
2023/11/18 08:23:05;;;;;;;1.88;0.65;;;;;;;;;;5015352;28;20049;-88
2023/11/18 08:25:35;;;;;;;0.98;0.30;;;;;;;;;;4998852;28;20041;-88
2023/11/18 08:28:01;;;;;;;0.25;0.20;;;;;;;;;;4999527;28;20473;-88
2023/11/18 08:30:27;;;;;;;0.35;0.20;;;;;;;;;;5015168;28;20045;-89
2023/11/18 08:32:53;;;;;;;0.75;0.20;;;;;;;;;;4999357;28;20045;-88
2023/11/18 08:35:21;;;;;;;0.65;0.65;;;;;;;;;;5015408;28;20084;-87
2023/11/18 08:37:47;;;;;;;0.43;0.20;;;;;;;;;;4999127;28;20073;-88
2023/11/18 08:40:20;;;;;;;0.30;0.30;;;;;;;;;;5015298;28;20052;-88
2023/11/18 08:42:49;;;;;;;;;;;;;;;;;;5015400;28;20045;-87
2023/11/18 08:45:34;;;;;;;0.45;0.45;;;;;;;;;;5031260;28;19921;-88
2023/11/18 08:48:07;;;;;;;0.40;0.40;;;;;;;;;;5015538;28;20041;-87
2023/11/18 08:50:33;;;;;;;0.68;0.68;;;;;;;;;;5014786;28;20041;-88
2023/11/18 08:52:59;;;;;;;0.32;0.20;;;;;;;;;;5014970;28;20476;-86
2023/11/18 08:55:40;;;;;;;0.75;0.30;;;;;;;;;;4998322;28;20081;-86
2023/11/18 08:58:18;;;;;;;0.20;0.20;;;;;;;;;;5016249;28;20072;-86
2023/11/18 09:03:17;;;;;;;0.30;0.30;;;;;;;;;;5014878;28;20053;-86
2023/11/18 09:05:58;;;;;;;0.10;0.10;;;;;;;;;;5014540;28;20041;-87
2023/11/18 09:08:38;;;;;;;0.10;0.10;;;;;;;;;;4999640;28;20034;-88
2023/11/18 09:11:07;;;;;;;0.22;0.22;;;;;;;;;;4998662;28;20033;-87
2023/11/18 09:13:34;;;;;;;0.28;0.28;;;;;;;;;;5014989;28;20052;-86
2023/11/18 09:16:00;;;;;;;0.85;0.43;;;;;;;;;;5014800;28;20472;-88
2023/11/18 09:18:34;;;;;;;0.35;0.35;;;;;;;;;;4998096;28;20029;-87
2023/11/18 09:21:07;;;;;;;0.47;0.47;;;;;;;;;;5016110;28;20072;-87
2023/11/18 09:23:37;;;;;;;0.10;0.10;;;;;;;;;;5014559;28;20091;-87
2023/11/18 09:26:07;;;;;;;0.75;0.75;;;;;;;;;;5030866;28;20047;-87
2023/11/18 09:28:34;;;;;;;0.80;0.40;;;;;;;;;;4998595;28;20033;-87
2023/11/18 09:31:02;;;;;;;1.63;0.80;;;;;;;;;;5014558;28;20393;-87
2023/11/18 09:33:32;;;;;;;0.10;0.10;;;;;;;;;;4998267;28;20038;-87
2023/11/18 09:35:58;;;;;;;0.20;0.20;;;;;;;;;;5000986;28;20041;-87
2023/11/18 09:38:31;;;;;;;0.20;0.20;;;;;;;;;;5002208;28;20044;-87
2023/11/18 09:40:57;;;;;;;;;;;;;;;;;;5018948;28;20057;-87
2023/11/18 09:43:26;;;;;;;0.98;0.95;;;;;;;;;;5034921;28;19979;-87
2023/11/18 09:45:55;;;;;;;0.20;0.20;;;;;;;;;;5002261;28;20077;-87
2023/11/18 09:48:25;;;;;;;0.38;0.38;;;;;;;;;;5018624;28;20037;-87
2023/11/18 09:50:51;;;;;;;0.20;0.20;;;;;;;;;;5018782;28;20114;-87
2023/11/18 09:53:19;;;;;;;0.30;0.30;;;;;;;;;;5018458;28;20034;-87
2023/11/18 09:55:55;;;;;;;0.10;0.10;;;;;;;;;;5001949;28;20038;-87
2023/11/18 09:58:24;;;;;;;0.25;0.22;;;;;;;;;;5002276;28;20044;-87
2023/11/18 10:00:50;;;;;;;0.50;0.43;;;;;;;;;;5001663;28;20057;-87
2023/11/18 10:03:16;;;;;;;0.32;0.32;;;;;;;;;;5018189;28;20045;-93
2023/11/18 10:05:42;;;;;;;0.20;0.20;;;;;;;;;;5002600;28;20109;-90
2023/11/18 10:08:08;;;;;;;0.55;0.55;;;;;;;;;;5002254;28;20054;-87
2023/11/18 10:10:45;;;;;;;0.30;0.30;;;;;;;;;;5017737;28;20041;-86
2023/11/18 10:13:22;;;;;;;1.65;0.52;;;;;;;;;;5002920;28;20461;-88
2023/11/18 10:15:52;;;;;;;0.20;0.20;;;;;;;;;;5017657;28;20073;-87
2023/11/18 10:18:24;;;;;;;0.32;0.22;;;;;;;;;;5001917;28;20085;-87
2023/11/18 10:20:56;;;;;;;0.10;0.10;;;;;;;;;;5018317;28;20588;-87
2023/11/18 10:23:23;;;;;;;0.35;0.30;;;;;;;;;;5018590;28;20392;-95
2023/11/18 10:25:53;;;;;;;0.20;0.20;;;;;;;;;;5001570;28;20372;-88
2023/11/18 10:28:27;;;;;;;0.85;0.85;;;;;;;;;;5017547;28;20033;-87
2023/11/18 10:30:53;;;;;;;0.22;0.22;;;;;;;;;;5001423;28;20047;-87
2023/11/18 10:33:19;;;;;;;0.57;0.35;;;;;;;;;;5001486;28;20086;-88
2023/11/18 10:35:52;;;;;;;0.20;0.20;;;;;;;;;;5017331;28;20560;-88
2023/11/18 10:38:18;;;;;;;0.65;0.65;;;;;;;;;;5017676;28;20466;-87
2023/11/18 10:40:44;;;;;;;0.10;0.10;;;;;;;;;;5001172;28;20115;-87
2023/11/18 10:43:10;;;;;;;0.20;0.20;;;;;;;;;;5017387;28;20037;-87
2023/11/18 10:45:40;;;;;;;0.20;0.20;;;;;;;;;;5017218;28;20083;-88
2023/11/18 10:48:08;;;;;;;0.55;0.55;;;;;;;;;;5017045;28;20040;-88
2023/11/18 10:50:34;;;;;;;0.20;0.20;;;;;;;;;;5016743;28;20495;-88
2023/11/18 10:53:03;;;;;;;0.20;0.20;;;;;;;;;;5000914;28;20041;-88
2023/11/18 10:55:36;;;;;;;0.52;0.30;;;;;;;;;;5017278;28;20045;-87
2023/11/18 10:58:04;;;;;;;0.22;0.22;;;;;;;;;;5001518;28;20545;-88
2023/11/18 11:00:33;;;;;;;0.10;0.10;;;;;;;;;;5000354;28;20488;-88
2023/11/18 11:02:59;;;;;;;1.48;0.68;;;;;;;;;;5017523;28;20104;-88
2023/11/18 11:05:32;;;;;;;0.25;0.25;;;;;;;;;;5016824;28;20124;-88
2023/11/18 11:07:59;;;;;;;0.52;0.52;;;;;;;;;;5017553;28;20483;-87
2023/11/18 11:10:28;;;;;;;0.25;0.25;;;;;;;;;;5016657;28;20049;-88
2023/11/18 11:12:54;;;;;;;0.30;0.30;;;;;;;;;;5016520;28;20038;-90
2023/11/18 11:15:25;;;;;;;0.55;0.55;;;;;;;;;;5017119;28;20072;-88
2023/11/18 11:17:55;;;;;;;0.20;0.20;;;;;;;;;;5000573;28;20049;-88
2023/11/18 11:20:27;;;;;;;0.10;0.10;;;;;;;;;;5000045;28;20037;-88
2023/11/18 11:23:03;;;;;;;1.00;0.60;;;;;;;;;;5001011;28;20040;-87
2023/11/18 11:25:34;;;;;;;0.10;0.10;;;;;;;;;;5016964;28;20404;-88
2023/11/18 11:28:19;;;;;;;0.20;0.20;;;;;;;;;;5000625;28;20389;-88
2023/11/18 11:30:55;;;;;;;0.60;0.52;;;;;;;;;;5000408;28;20042;-87
2023/11/18 11:33:40;;;;;;;0.20;0.20;;;;;;;;;;5016222;28;20041;-87
2023/11/18 11:36:11;;;;;;;0.10;0.10;;;;;;;;;;5000787;28;20072;-87
2023/11/18 11:38:37;;;;;;;0.30;0.30;;;;;;;;;;5017256;28;20041;-86
2023/11/18 11:41:05;;;;;;;0.10;0.10;;;;;;;;;;4999954;28;20038;-87
2023/11/18 11:43:34;;;;;;;0.47;0.47;;;;;;;;;;5000158;28;20037;-87
2023/11/18 11:46:03;;;;;;;0.10;0.10;;;;;;;;;;5000139;28;20041;-87
2023/11/18 11:48:35;;;;;;;0.30;0.30;;;;;;;;;;5016448;28;20041;-87
2023/11/18 11:51:03;;;;;;;;;;;;;;;;;;5001394;28;20033;-88
2023/11/18 11:53:31;;;;;;;0.30;0.30;;;;;;;;;;5018465;28;19932;-87
2023/11/18 11:56:05;;;;;;;0.10;0.10;;;;;;;;;;4999958;28;20128;-88
2023/11/18 11:58:31;;;;;;;0.20;0.20;;;;;;;;;;5003637;28;20045;-88
2023/11/18 12:01:07;;;;;;;0.55;0.55;;;;;;;;;;5011370;28;20041;-92
2023/11/18 12:03:36;;;;;;;0.68;0.68;;;;;;;;;;5003681;28;20045;-87
2023/11/18 12:06:07;;;;;;;0.28;0.28;;;;;;;;;;5032435;28;20535;-88
2023/11/18 12:08:33;;;;;;;0.10;0.10;;;;;;;;;;5016629;28;20122;-88
2023/11/18 12:11:01;;;;;;;0.20;0.20;;;;;;;;;;4999251;28;20049;-88
2023/11/18 12:13:27;;;;;;;0.35;0.35;;;;;;;;;;4999261;28;20041;-88
2023/11/18 12:16:04;;;;;;;0.10;0.10;;;;;;;;;;5015513;28;20048;-88
2023/11/18 12:18:33;;;;;;;0.30;0.30;;;;;;;;;;5000415;28;20374;-88
2023/11/18 12:21:03;;;;;;;0.43;0.43;;;;;;;;;;4999471;28;20049;-88
2023/11/18 12:23:30;;;;;;;0.93;0.25;;;;;;;;;;5015441;28;20041;-88
2023/11/18 12:25:57;;;;;;;0.70;0.70;;;;;;;;;;5015075;28;20124;-88
2023/11/18 12:28:37;;;;;;;0.60;0.60;;;;;;;;;;4999190;28;20048;-88
2023/11/18 12:31:13;;;;;;;0.32;0.32;;;;;;;;;;4999977;28;20037;-88
2023/11/18 12:33:51;;;;;;;0.50;0.50;;;;;;;;;;5015075;28;20044;-87
2023/11/18 12:36:34;;;;;;;0.10;0.10;;;;;;;;;;5031443;28;20065;-88
2023/11/18 12:39:18;;;;;;;1.45;1.10;;;;;;;;;;5031578;28;20048;-88
2023/11/18 12:41:47;;;;;;;0.10;0.10;;;;;;;;;;5031428;28;20037;-87
2023/11/18 12:44:23;;;;;;;0.43;0.20;;;;;;;;;;5031326;28;20041;-86
2023/11/18 12:46:55;;;;;;;0.20;0.20;;;;;;;;;;5014805;28;20045;-87
2023/11/18 12:49:25;;;;;;;0.35;0.35;;;;;;;;;;5031469;28;20048;-87
2023/11/18 12:51:52;;;;;;;0.50;0.50;;;;;;;;;;5015794;28;20053;-87
2023/11/18 12:54:18;;;;;;;0.32;0.32;;;;;;;;;;5014928;28;20096;-87
2023/11/18 12:56:48;;;;;;;0.30;0.30;;;;;;;;;;5014804;28;20432;-87
2023/11/18 12:59:17;;;;;;;0.10;0.10;;;;;;;;;;5014262;28;20048;-87
2023/11/18 13:01:50;;;;;;;0.32;0.20;;;;;;;;;;4998759;28;20063;-87
2023/11/18 13:04:17;;;;;;;0.10;0.10;;;;;;;;;;5015865;28;20482;-87
2023/11/18 13:06:43;;;;;;;0.10;0.10;;;;;;;;;;5015035;28;20400;-87
2023/11/18 13:09:10;;;;;;;0.10;0.10;;;;;;;;;;4998477;28;20041;-87
2023/11/18 13:11:38;;;;;;;0.20;0.20;;;;;;;;;;5014318;28;20057;-88
2023/11/18 13:14:04;;;;;;;0.30;0.30;;;;;;;;;;4998973;28;20398;-88
2023/11/18 13:16:30;;;;;;;0.10;0.10;;;;;;;;;;4998309;28;20053;-88
2023/11/18 13:18:59;;;;;;;0.20;0.20;;;;;;;;;;5031125;28;20049;-87
2023/11/18 13:21:29;;;;;;;0.10;0.10;;;;;;;;;;4998531;28;20124;-88
2023/11/18 13:23:55;;;;;;;0.10;0.10;;;;;;;;;;4998907;28;20045;-92
2023/11/18 13:26:21;;;;;;;0.10;0.10;;;;;;;;;;4999656;28;20059;-90
2023/11/18 13:28:49;;;;;;;0.32;0.32;;;;;;;;;;4998993;28;20037;-89
2023/11/18 13:31:16;;;;;;;0.20;0.20;;;;;;;;;;5014736;28;20481;-87
2023/11/18 13:33:48;;;;;;;0.20;0.20;;;;;;;;;;4998156;28;20037;-86
2023/11/18 13:36:14;;;;;;;0.10;0.10;;;;;;;;;;5015680;28;20153;-87
2023/11/18 13:38:41;;;;;;;0.10;0.10;;;;;;;;;;5014009;28;20113;-87
2023/11/18 13:41:08;;;;;;;0.10;0.10;;;;;;;;;;5014356;28;20076;-87
2023/11/18 13:43:45;;;;;;;0.30;0.30;;;;;;;;;;5014331;28;20087;-88
2023/11/18 13:46:13;;;;;;;0.20;0.20;;;;;;;;;;5030641;28;20045;-87
2023/11/18 13:48:42;;;;;;;0.20;0.20;;;;;;;;;;4998192;28;20040;-87
2023/11/18 13:51:09;;;;;;;0.45;0.35;;;;;;;;;;5014584;28;20435;-87
2023/11/18 13:53:38;;;;;;;0.22;0.22;;;;;;;;;;5014504;28;20060;-87
2023/11/18 13:56:05;;;;;;;0.10;0.10;;;;;;;;;;5014116;28;20037;-87
2023/11/18 13:58:31;;;;;;;0.10;0.10;;;;;;;;;;5014452;28;20045;-87
2023/11/18 14:00:57;;;;;;;0.10;0.10;;;;;;;;;;4997446;28;20060;-88
2023/11/18 14:03:23;;;;;;;0.20;0.20;;;;;;;;;;5014113;28;20045;-87
2023/11/18 14:05:51;;;;;;;0.10;0.10;;;;;;;;;;4998059;28;20041;-87
2023/11/18 14:08:19;;;;;;;0.20;0.20;;;;;;;;;;4998001;28;20096;-87
2023/11/18 14:10:45;;;;;;;0.20;0.20;;;;;;;;;;4997888;28;20045;-87
2023/11/18 14:13:16;;;;;;;0.20;0.20;;;;;;;;;;5014144;28;20045;-88
2023/11/18 14:15:45;;;;;;;0.10;0.10;;;;;;;;;;4998227;28;20488;-88
2023/11/18 14:18:11;;;;;;;0.17;0.17;;;;;;;;;;4997928;28;20449;-88
2023/11/18 14:20:37;;;;;;;0.20;0.20;;;;;;;;;;5013683;28;20045;-88
2023/11/18 14:23:03;;;;;;;0.10;0.10;;;;;;;;;;5016312;28;20041;-88
2023/11/18 14:25:29;;;;;;;0.40;0.25;;;;;;;;;;5001237;28;20064;-88
2023/11/18 14:27:56;;;;;;;0.20;0.20;;;;;;;;;;5001112;28;20045;-89
2023/11/18 14:30:25;;;;;;;0.10;0.10;;;;;;;;;;5033862;28;20049;-87
2023/11/18 14:32:54;;;;;;;0.60;0.40;;;;;;;;;;5017862;28;20038;-87
2023/11/18 14:35:20;;;;;;;1.55;0.63;;;;;;;;;;5017407;28;20037;-89
2023/11/18 14:37:46;;;;;;;0.52;0.52;;;;;;;;;;5000897;28;20449;-86
2023/11/18 14:40:13;;;;;;;0.30;0.30;;;;;;;;;;5017186;28;20121;-88
2023/11/18 14:42:40;;;;;;;0.55;0.55;;;;;;;;;;5000967;28;20064;-86
2023/11/18 14:45:08;;;;;;;0.10;0.10;;;;;;;;;;5017074;28;20504;-88
2023/11/18 14:47:34;;;;;;;0.25;0.25;;;;;;;;;;5016884;28;20433;-87
2023/11/18 14:50:02;;;;;;;0.10;0.10;;;;;;;;;;5001010;28;20045;-87
2023/11/18 14:52:28;;;;;;;0.20;0.20;;;;;;;;;;5017319;28;20077;-87
2023/11/18 14:54:54;;;;;;;0.35;0.35;;;;;;;;;;5001013;28;20084;-87